sensor_id;sensor_type;location;lat;lon;timestamp;pressure;altitude;pressure_sealevel;temperature;humidity
71889;BME280;59762;49.998;14.858;2023-11-22T00:01:22;97480.44;;;0.75;100.00
71889;BME280;59762;49.998;14.858;2023-11-22T00:03:48;97482.97;;;0.77;100.00
71889;BME280;59762;49.998;14.858;2023-11-22T00:06:15;97481.28;;;0.62;100.00
71889;BME280;59762;49.998;14.858;2023-11-22T00:08:41;97478.56;;;0.63;100.00
71889;BME280;59762;49.998;14.858;2023-11-22T00:11:07;97487.19;;;0.65;100.00
71889;BME280;59762;49.998;14.858;2023-11-22T00:13:32;97488.63;;;0.57;100.00
71889;BME280;59762;49.998;14.858;2023-11-22T00:15:58;97488.06;;;0.52;100.00
71889;BME280;59762;49.998;14.858;2023-11-22T00:18:24;97484.69;;;0.50;100.00
71889;BME280;59762;49.998;14.858;2023-11-22T00:20:51;97481.00;;;0.52;100.00
71889;BME280;59762;49.998;14.858;2023-11-22T00:23:17;97492.38;;;0.53;100.00
71889;BME280;59762;49.998;14.858;2023-11-22T00:25:43;97492.47;;;0.51;100.00
71889;BME280;59762;49.998;14.858;2023-11-22T00:28:08;97501.69;;;0.44;100.00
71889;BME280;59762;49.998;14.858;2023-11-22T00:30:34;97499.31;;;0.40;100.00
71889;BME280;59762;49.998;14.858;2023-11-22T00:33:00;97493.22;;;0.39;100.00
71889;BME280;59762;49.998;14.858;2023-11-22T00:35:25;97491.63;;;0.37;100.00
71889;BME280;59762;49.998;14.858;2023-11-22T00:37:51;97490.44;;;0.28;100.00
71889;BME280;59762;49.998;14.858;2023-11-22T00:40:17;97492.94;;;0.44;100.00
71889;BME280;59762;49.998;14.858;2023-11-22T00:42:42;97501.78;;;0.29;100.00
71889;BME280;59762;49.998;14.858;2023-11-22T00:45:09;97504.19;;;0.32;100.00
71889;BME280;59762;49.998;14.858;2023-11-22T00:47:36;97507.66;;;0.46;100.00
71889;BME280;59762;49.998;14.858;2023-11-22T00:50:03;97509.84;;;0.40;100.00
71889;BME280;59762;49.998;14.858;2023-11-22T00:52:30;97518.75;;;0.37;100.00
71889;BME280;59762;49.998;14.858;2023-11-22T00:54:56;97519.56;;;0.23;100.00
71889;BME280;59762;49.998;14.858;2023-11-22T00:57:22;97517.16;;;0.21;100.00
71889;BME280;59762;49.998;14.858;2023-11-22T00:59:48;97518.63;;;0.10;100.00
71889;BME280;59762;49.998;14.858;2023-11-22T01:02:15;97530.38;;;0.05;100.00
71889;BME280;59762;49.998;14.858;2023-11-22T01:04:41;97517.31;;;0.03;100.00
71889;BME280;59762;49.998;14.858;2023-11-22T01:07:07;97517.13;;;0.06;100.00
71889;BME280;59762;49.998;14.858;2023-11-22T01:09:33;97522.19;;;0.09;100.00
71889;BME280;59762;49.998;14.858;2023-11-22T01:12:00;97519.66;;;0.08;100.00
71889;BME280;59762;49.998;14.858;2023-11-22T01:14:26;97522.66;;;0.02;100.00
71889;BME280;59762;49.998;14.858;2023-11-22T01:16:52;97510.19;;;0.05;100.00
71889;BME280;59762;49.998;14.858;2023-11-22T01:19:20;97514.69;;;0.03;100.00
71889;BME280;59762;49.998;14.858;2023-11-22T01:21:46;97514.06;;;0.00;100.00
71889;BME280;59762;49.998;14.858;2023-11-22T01:24:12;97515.53;;;0.04;100.00
71889;BME280;59762;49.998;14.858;2023-11-22T01:26:37;97525.47;;;-0.01;100.00
71889;BME280;59762;49.998;14.858;2023-11-22T01:29:04;97531.75;;;-0.04;100.00
71889;BME280;59762;49.998;14.858;2023-11-22T01:31:30;97532.78;;;-0.06;100.00
71889;BME280;59762;49.998;14.858;2023-11-22T01:33:59;97537.69;;;-0.16;100.00
71889;BME280;59762;49.998;14.858;2023-11-22T01:36:25;97539.69;;;-0.05;100.00
71889;BME280;59762;49.998;14.858;2023-11-22T01:38:51;97549.28;;;-0.04;100.00
71889;BME280;59762;49.998;14.858;2023-11-22T01:41:17;97539.53;;;-0.02;100.00
71889;BME280;59762;49.998;14.858;2023-11-22T01:43:43;97544.38;;;-0.10;100.00
71889;BME280;59762;49.998;14.858;2023-11-22T01:46:10;97545.25;;;-0.10;100.00
71889;BME280;59762;49.998;14.858;2023-11-22T01:48:42;97548.34;;;-0.03;100.00
71889;BME280;59762;49.998;14.858;2023-11-22T01:51:07;97548.34;;;-0.03;100.00
71889;BME280;59762;49.998;14.858;2023-11-22T01:53:34;97545.84;;;-0.34;100.00
71889;BME280;59762;49.998;14.858;2023-11-22T01:56:00;97550.56;;;-0.11;100.00
71889;BME280;59762;49.998;14.858;2023-11-22T01:58:27;97563.72;;;0.03;100.00
71889;BME280;59762;49.998;14.858;2023-11-22T02:00:53;97557.50;;;-0.10;100.00
71889;BME280;59762;49.998;14.858;2023-11-22T02:03:19;97564.81;;;-0.15;100.00
71889;BME280;59762;49.998;14.858;2023-11-22T02:05:46;97573.06;;;-0.07;100.00
71889;BME280;59762;49.998;14.858;2023-11-22T02:08:13;97569.03;;;-0.13;100.00
71889;BME280;59762;49.998;14.858;2023-11-22T02:10:40;97580.53;;;-0.15;100.00
71889;BME280;59762;49.998;14.858;2023-11-22T02:13:06;97583.16;;;-0.15;100.00
71889;BME280;59762;49.998;14.858;2023-11-22T02:15:37;97587.47;;;-0.14;100.00
71889;BME280;59762;49.998;14.858;2023-11-22T02:18:03;97589.53;;;-0.19;100.00
71889;BME280;59762;49.998;14.858;2023-11-22T02:20:31;97589.28;;;-0.15;100.00
71889;BME280;59762;49.998;14.858;2023-11-22T02:25:23;97588.94;;;0.05;100.00
71889;BME280;59762;49.998;14.858;2023-11-22T02:27:49;97605.50;;;-0.08;100.00
71889;BME280;59762;49.998;14.858;2023-11-22T02:30:14;97611.09;;;-0.14;100.00
71889;BME280;59762;49.998;14.858;2023-11-22T02:32:42;97608.06;;;-0.22;100.00
71889;BME280;59762;49.998;14.858;2023-11-22T02:35:08;97609.88;;;-0.23;100.00
71889;BME280;59762;49.998;14.858;2023-11-22T02:37:34;97612.41;;;-0.21;100.00
71889;BME280;59762;49.998;14.858;2023-11-22T02:40:17;97617.75;;;-0.23;100.00
71889;BME280;59762;49.998;14.858;2023-11-22T02:42:48;97628.44;;;-0.12;100.00
71889;BME280;59762;49.998;14.858;2023-11-22T02:45:18;97623.59;;;-0.33;100.00
71889;BME280;59762;49.998;14.858;2023-11-22T02:47:44;97638.31;;;-0.31;100.00
71889;BME280;59762;49.998;14.858;2023-11-22T02:50:15;97639.06;;;-0.29;100.00
71889;BME280;59762;49.998;14.858;2023-11-22T02:52:41;97632.13;;;-0.30;100.00
71889;BME280;59762;49.998;14.858;2023-11-22T02:55:08;97642.63;;;-0.30;100.00
71889;BME280;59762;49.998;14.858;2023-11-22T02:57:38;97649.66;;;-0.30;100.00
71889;BME280;59762;49.998;14.858;2023-11-22T03:00:06;97652.09;;;-0.27;100.00
71889;BME280;59762;49.998;14.858;2023-11-22T03:02:34;97643.31;;;-0.42;100.00
71889;BME280;59762;49.998;14.858;2023-11-22T03:05:00;97646.78;;;-0.41;100.00
71889;BME280;59762;49.998;14.858;2023-11-22T03:07:26;97646.34;;;-0.34;100.00
71889;BME280;59762;49.998;14.858;2023-11-22T03:09:52;97657.03;;;-0.37;100.00
71889;BME280;59762;49.998;14.858;2023-11-22T03:12:18;97662.03;;;-0.48;100.00
71889;BME280;59762;49.998;14.858;2023-11-22T03:14:46;97660.25;;;-0.63;100.00
71889;BME280;59762;49.998;14.858;2023-11-22T03:17:12;97657.72;;;-0.49;100.00
71889;BME280;59762;49.998;14.858;2023-11-22T03:19:39;97655.66;;;-0.44;100.00
71889;BME280;59762;49.998;14.858;2023-11-22T03:22:06;97660.50;;;-0.52;100.00
71889;BME280;59762;49.998;14.858;2023-11-22T03:24:32;97666.31;;;-0.47;100.00
71889;BME280;59762;49.998;14.858;2023-11-22T03:27:00;97664.91;;;-0.52;100.00
71889;BME280;59762;49.998;14.858;2023-11-22T03:29:26;97665.91;;;-0.55;100.00
71889;BME280;59762;49.998;14.858;2023-11-22T03:31:53;97674.19;;;-0.47;100.00
71889;BME280;59762;49.998;14.858;2023-11-22T03:34:19;97682.75;;;-0.43;100.00
71889;BME280;59762;49.998;14.858;2023-11-22T03:36:45;97677.84;;;-0.49;100.00
71889;BME280;59762;49.998;14.858;2023-11-22T03:39:11;97672.00;;;-0.54;100.00
71889;BME280;59762;49.998;14.858;2023-11-22T03:41:37;97668.78;;;-0.59;100.00
71889;BME280;59762;49.998;14.858;2023-11-22T03:44:04;97673.88;;;-0.56;100.00
71889;BME280;59762;49.998;14.858;2023-11-22T03:46:35;97673.19;;;-0.60;100.00
71889;BME280;59762;49.998;14.858;2023-11-22T03:49:02;97689.09;;;-0.63;100.00
71889;BME280;59762;49.998;14.858;2023-11-22T03:51:29;97684.09;;;-0.67;100.00
71889;BME280;59762;49.998;14.858;2023-11-22T03:53:54;97691.22;;;-0.69;100.00
71889;BME280;59762;49.998;14.858;2023-11-22T03:56:20;97685.69;;;-0.80;100.00
71889;BME280;59762;49.998;14.858;2023-11-22T03:58:46;97697.78;;;-0.78;100.00
71889;BME280;59762;49.998;14.858;2023-11-22T04:01:14;97713.28;;;-0.73;100.00
71889;BME280;59762;49.998;14.858;2023-11-22T04:03:41;97710.88;;;-0.78;100.00
71889;BME280;59762;49.998;14.858;2023-11-22T04:06:07;97724.34;;;-0.68;100.00
71889;BME280;59762;49.998;14.858;2023-11-22T04:08:33;97725.19;;;-0.68;100.00
71889;BME280;59762;49.998;14.858;2023-11-22T04:10:59;97722.41;;;-0.65;100.00
71889;BME280;59762;49.998;14.858;2023-11-22T04:13:24;97727.91;;;-0.69;100.00
71889;BME280;59762;49.998;14.858;2023-11-22T04:15:51;97731.88;;;-0.62;100.00
71889;BME280;59762;49.998;14.858;2023-11-22T04:18:16;97737.03;;;-0.76;100.00
71889;BME280;59762;49.998;14.858;2023-11-22T04:20:42;97728.25;;;-0.60;100.00
71889;BME280;59762;49.998;14.858;2023-11-22T04:23:08;97735.09;;;-0.57;100.00
71889;BME280;59762;49.998;14.858;2023-11-22T04:25:37;97727.72;;;-0.66;100.00
71889;BME280;59762;49.998;14.858;2023-11-22T04:28:03;97717.16;;;-0.65;100.00
71889;BME280;59762;49.998;14.858;2023-11-22T04:30:29;97720.47;;;-0.61;100.00
71889;BME280;59762;49.998;14.858;2023-11-22T04:32:54;97727.56;;;-0.63;100.00
71889;BME280;59762;49.998;14.858;2023-11-22T04:35:20;97745.84;;;-0.62;100.00
71889;BME280;59762;49.998;14.858;2023-11-22T04:37:46;97751.63;;;-0.88;100.00
71889;BME280;59762;49.998;14.858;2023-11-22T04:40:12;97749.19;;;-0.75;100.00
71889;BME280;59762;49.998;14.858;2023-11-22T04:42:39;97739.16;;;-0.67;100.00
71889;BME280;59762;49.998;14.858;2023-11-22T04:45:05;97744.53;;;-0.86;100.00
71889;BME280;59762;49.998;14.858;2023-11-22T04:47:31;97748.38;;;-0.76;100.00
71889;BME280;59762;49.998;14.858;2023-11-22T04:49:57;97750.81;;;-0.73;100.00
71889;BME280;59762;49.998;14.858;2023-11-22T04:52:23;97746.16;;;-0.68;100.00
71889;BME280;59762;49.998;14.858;2023-11-22T04:54:49;97741.19;;;-0.57;100.00
71889;BME280;59762;49.998;14.858;2023-11-22T04:57:14;97740.34;;;-0.57;100.00
71889;BME280;59762;49.998;14.858;2023-11-22T04:59:41;97752.53;;;-0.72;100.00
71889;BME280;59762;49.998;14.858;2023-11-22T05:02:06;97754.75;;;-0.49;100.00
71889;BME280;59762;49.998;14.858;2023-11-22T05:04:33;97763.63;;;-0.51;100.00
71889;BME280;59762;49.998;14.858;2023-11-22T05:06:58;97785.88;;;-0.58;100.00
71889;BME280;59762;49.998;14.858;2023-11-22T05:09:24;97791.19;;;-0.60;100.00
71889;BME280;59762;49.998;14.858;2023-11-22T05:11:50;97793.88;;;-0.61;100.00
71889;BME280;59762;49.998;14.858;2023-11-22T05:14:17;97805.63;;;-0.68;100.00
71889;BME280;59762;49.998;14.858;2023-11-22T05:16:43;97804.81;;;-0.53;100.00
71889;BME280;59762;49.998;14.858;2023-11-22T05:19:09;97812.09;;;-0.58;100.00
71889;BME280;59762;49.998;14.858;2023-11-22T05:21:34;97807.94;;;-0.62;100.00
71889;BME280;59762;49.998;14.858;2023-11-22T05:24:00;97816.16;;;-0.53;100.00
71889;BME280;59762;49.998;14.858;2023-11-22T05:26:26;97814.28;;;-0.51;100.00
71889;BME280;59762;49.998;14.858;2023-11-22T05:28:52;97818.06;;;-0.72;100.00
71889;BME280;59762;49.998;14.858;2023-11-22T05:31:21;97822.38;;;-0.71;100.00
71889;BME280;59762;49.998;14.858;2023-11-22T05:33:48;97821.03;;;-0.62;100.00
71889;BME280;59762;49.998;14.858;2023-11-22T05:36:14;97830.69;;;-0.63;100.00
71889;BME280;59762;49.998;14.858;2023-11-22T05:38:42;97832.38;;;-0.62;100.00
71889;BME280;59762;49.998;14.858;2023-11-22T05:41:08;97840.81;;;-0.72;100.00
71889;BME280;59762;49.998;14.858;2023-11-22T05:43:34;97840.81;;;-0.72;100.00
71889;BME280;59762;49.998;14.858;2023-11-22T05:46:05;97852.84;;;-0.68;100.00
71889;BME280;59762;49.998;14.858;2023-11-22T05:48:30;97864.22;;;-0.52;100.00
71889;BME280;59762;49.998;14.858;2023-11-22T05:50:56;97858.81;;;-0.49;100.00
71889;BME280;59762;49.998;14.858;2023-11-22T05:53:22;97868.69;;;-0.54;100.00
71889;BME280;59762;49.998;14.858;2023-11-22T05:55:48;97876.50;;;-0.53;100.00
71889;BME280;59762;49.998;14.858;2023-11-22T05:58:15;97881.91;;;-0.73;100.00
71889;BME280;59762;49.998;14.858;2023-11-22T06:00:44;97880.19;;;-0.57;100.00
71889;BME280;59762;49.998;14.858;2023-11-22T06:03:11;97884.50;;;-0.56;100.00
71889;BME280;59762;49.998;14.858;2023-11-22T06:05:36;97882.66;;;-0.54;100.00
71889;BME280;59762;49.998;14.858;2023-11-22T06:08:02;97887.69;;;-0.66;100.00
71889;BME280;59762;49.998;14.858;2023-11-22T06:10:28;97889.06;;;-0.59;100.00
71889;BME280;59762;49.998;14.858;2023-11-22T06:12:54;97892.78;;;-0.63;100.00
71889;BME280;59762;49.998;14.858;2023-11-22T06:15:19;97900.31;;;-0.57;100.00
71889;BME280;59762;49.998;14.858;2023-11-22T06:17:47;97902.78;;;-0.54;100.00
71889;BME280;59762;49.998;14.858;2023-11-22T06:20:14;97902.47;;;-0.48;100.00
71889;BME280;59762;49.998;14.858;2023-11-22T06:22:40;97901.84;;;-0.53;100.00
71889;BME280;59762;49.998;14.858;2023-11-22T06:25:14;97909.97;;;-0.41;100.00
71889;BME280;59762;49.998;14.858;2023-11-22T06:27:39;97918.28;;;-0.33;100.00
71889;BME280;59762;49.998;14.858;2023-11-22T06:30:08;97916.72;;;-0.20;100.00
71889;BME280;59762;49.998;14.858;2023-11-22T06:32:36;97913.56;;;-0.26;100.00
71889;BME280;59762;49.998;14.858;2023-11-22T06:35:02;97914.38;;;-0.26;100.00
71889;BME280;59762;49.998;14.858;2023-11-22T06:37:28;97905.94;;;-0.15;100.00
71889;BME280;59762;49.998;14.858;2023-11-22T06:39:54;97905.28;;;-0.19;100.00
71889;BME280;59762;49.998;14.858;2023-11-22T06:42:20;97891.28;;;-0.19;100.00
71889;BME280;59762;49.998;14.858;2023-11-22T06:44:45;97906.97;;;-0.18;100.00
71889;BME280;59762;49.998;14.858;2023-11-22T06:47:15;97908.53;;;-0.31;100.00
71889;BME280;59762;49.998;14.858;2023-11-22T06:49:40;97920.44;;;-0.41;100.00
71889;BME280;59762;49.998;14.858;2023-11-22T06:52:06;97928.06;;;-0.36;100.00
71889;BME280;59762;49.998;14.858;2023-11-22T06:54:34;97931.78;;;-0.40;100.00
71889;BME280;59762;49.998;14.858;2023-11-22T06:57:00;97940.56;;;-0.24;100.00
71889;BME280;59762;49.998;14.858;2023-11-22T06:59:26;97946.00;;;-0.12;100.00
71889;BME280;59762;49.998;14.858;2023-11-22T07:01:52;97949.81;;;-0.17;100.00
71889;BME280;59762;49.998;14.858;2023-11-22T07:04:17;97948.94;;;0.15;100.00
71889;BME280;59762;49.998;14.858;2023-11-22T07:06:43;97956.75;;;-0.16;100.00
71889;BME280;59762;49.998;14.858;2023-11-22T07:09:09;97960.03;;;0.20;100.00
71889;BME280;59762;49.998;14.858;2023-11-22T07:11:36;97955.63;;;0.05;100.00
71889;BME280;59762;49.998;14.858;2023-11-22T07:14:03;97956.88;;;-0.02;100.00
71889;BME280;59762;49.998;14.858;2023-11-22T07:16:30;97960.13;;;-0.14;100.00
71889;BME280;59762;49.998;14.858;2023-11-22T07:18:56;97962.53;;;-0.10;100.00
71889;BME280;59762;49.998;14.858;2023-11-22T07:21:22;97958.78;;;-0.21;100.00
71889;BME280;59762;49.998;14.858;2023-11-22T07:23:48;97958.28;;;-0.12;100.00
71889;BME280;59762;49.998;14.858;2023-11-22T07:26:14;97959.22;;;-0.13;100.00
71889;BME280;59762;49.998;14.858;2023-11-22T07:28:40;97959.66;;;-0.05;100.00
71889;BME280;59762;49.998;14.858;2023-11-22T07:31:07;97962.47;;;-0.25;100.00
71889;BME280;59762;49.998;14.858;2023-11-22T07:33:33;97959.13;;;-0.29;100.00
71889;BME280;59762;49.998;14.858;2023-11-22T07:35:59;97968.19;;;-0.17;100.00
71889;BME280;59762;49.998;14.858;2023-11-22T07:38:24;97980.91;;;-0.27;100.00
71889;BME280;59762;49.998;14.858;2023-11-22T07:40:51;97979.53;;;-0.34;100.00
71889;BME280;59762;49.998;14.858;2023-11-22T07:43:17;97984.94;;;-0.37;100.00
71889;BME280;59762;49.998;14.858;2023-11-22T07:45:42;97995.72;;;-0.26;100.00
71889;BME280;59762;49.998;14.858;2023-11-22T07:48:12;97986.16;;;-0.10;100.00
71889;BME280;59762;49.998;14.858;2023-11-22T07:50:39;97992.44;;;-0.29;100.00
71889;BME280;59762;49.998;14.858;2023-11-22T07:53:04;98008.38;;;-0.17;100.00
71889;BME280;59762;49.998;14.858;2023-11-22T07:55:31;98007.63;;;-0.19;100.00
71889;BME280;59762;49.998;14.858;2023-11-22T07:57:57;98028.44;;;-0.16;100.00
71889;BME280;59762;49.998;14.858;2023-11-22T08:00:23;98022.50;;;-0.19;100.00
71889;BME280;59762;49.998;14.858;2023-11-22T08:02:49;98015.91;;;-0.26;100.00
71889;BME280;59762;49.998;14.858;2023-11-22T08:05:16;98036.16;;;-0.30;100.00
71889;BME280;59762;49.998;14.858;2023-11-22T08:07:42;98042.13;;;-0.26;100.00
71889;BME280;59762;49.998;14.858;2023-11-22T08:10:10;98040.25;;;-0.07;100.00
71889;BME280;59762;49.998;14.858;2023-11-22T08:12:43;98037.31;;;-0.18;100.00
71889;BME280;59762;49.998;14.858;2023-11-22T08:15:10;98036.72;;;-0.23;100.00
71889;BME280;59762;49.998;14.858;2023-11-22T08:17:38;98039.88;;;-0.34;100.00
71889;BME280;59762;49.998;14.858;2023-11-22T08:20:06;98035.69;;;-0.38;100.00
71889;BME280;59762;49.998;14.858;2023-11-22T08:22:32;98025.59;;;-0.45;100.00
71889;BME280;59762;49.998;14.858;2023-11-22T08:25:02;98020.97;;;-0.40;100.00
71889;BME280;59762;49.998;14.858;2023-11-22T08:27:29;98011.09;;;-0.52;100.00
71889;BME280;59762;49.998;14.858;2023-11-22T08:29:55;98021.44;;;-0.49;100.00
71889;BME280;59762;49.998;14.858;2023-11-22T08:32:21;98032.78;;;-0.32;100.00
71889;BME280;59762;49.998;14.858;2023-11-22T08:34:53;98059.47;;;-0.41;100.00
71889;BME280;59762;49.998;14.858;2023-11-22T08:37:18;98083.72;;;-0.36;100.00
71889;BME280;59762;49.998;14.858;2023-11-22T08:39:44;98094.75;;;-0.29;100.00
71889;BME280;59762;49.998;14.858;2023-11-22T08:42:10;98085.50;;;-0.19;100.00
71889;BME280;59762;49.998;14.858;2023-11-22T08:44:36;98089.66;;;-0.32;100.00
71889;BME280;59762;49.998;14.858;2023-11-22T08:47:02;98086.94;;;-0.31;100.00
71889;BME280;59762;49.998;14.858;2023-11-22T08:49:31;98085.66;;;-0.39;100.00
71889;BME280;59762;49.998;14.858;2023-11-22T08:51:56;98087.63;;;-0.44;100.00
71889;BME280;59762;49.998;14.858;2023-11-22T08:54:22;98095.59;;;-0.46;100.00
71889;BME280;59762;49.998;14.858;2023-11-22T08:56:48;98093.09;;;-0.49;100.00
71889;BME280;59762;49.998;14.858;2023-11-22T08:59:13;98093.28;;;-0.35;100.00
71889;BME280;59762;49.998;14.858;2023-11-22T09:01:42;98089.78;;;-0.52;100.00
71889;BME280;59762;49.998;14.858;2023-11-22T09:04:11;98098.66;;;-0.38;100.00
71889;BME280;59762;49.998;14.858;2023-11-22T09:06:37;98100.53;;;-0.40;100.00
71889;BME280;59762;49.998;14.858;2023-11-22T09:09:03;98102.78;;;-0.32;100.00
71889;BME280;59762;49.998;14.858;2023-11-22T09:11:28;98098.59;;;-0.36;100.00
71889;BME280;59762;49.998;14.858;2023-11-22T09:13:54;98102.16;;;-0.37;100.00
71889;BME280;59762;49.998;14.858;2023-11-22T09:16:22;98107.59;;;-0.42;100.00
71889;BME280;59762;49.998;14.858;2023-11-22T09:18:51;98108.25;;;-0.37;100.00
71889;BME280;59762;49.998;14.858;2023-11-22T09:21:16;98100.69;;;-0.61;100.00
71889;BME280;59762;49.998;14.858;2023-11-22T09:23:43;98115.84;;;-0.49;100.00
71889;BME280;59762;49.998;14.858;2023-11-22T09:26:08;98112.84;;;-0.42;100.00
71889;BME280;59762;49.998;14.858;2023-11-22T09:28:34;98115.47;;;-0.42;100.00
71889;BME280;59762;49.998;14.858;2023-11-22T09:31:00;98112.63;;;-0.37;100.00
71889;BME280;59762;49.998;14.858;2023-11-22T09:33:32;98109.63;;;-0.30;100.00
71889;BME280;59762;49.998;14.858;2023-11-22T09:35:57;98109.94;;;-0.36;100.00
71889;BME280;59762;49.998;14.858;2023-11-22T09:38:29;98115.28;;;-0.20;100.00
71889;BME280;59762;49.998;14.858;2023-11-22T09:40:55;98105.53;;;-0.35;100.00
71889;BME280;59762;49.998;14.858;2023-11-22T09:43:22;98114.13;;;-0.32;100.00
71889;BME280;59762;49.998;14.858;2023-11-22T09:45:50;98119.75;;;-0.22;100.00
71889;BME280;59762;49.998;14.858;2023-11-22T09:48:18;98123.22;;;-0.22;100.00
71889;BME280;59762;49.998;14.858;2023-11-22T09:50:57;98128.03;;;-0.48;100.00
71889;BME280;59762;49.998;14.858;2023-11-22T09:56:01;98131.56;;;-0.31;100.00
71889;BME280;59762;49.998;14.858;2023-11-22T09:58:32;98127.44;;;-0.36;100.00
71889;BME280;59762;49.998;14.858;2023-11-22T10:00:59;98134.28;;;-0.15;100.00
71889;BME280;59762;49.998;14.858;2023-11-22T10:03:28;98121.84;;;-0.12;100.00
71889;BME280;59762;49.998;14.858;2023-11-22T10:05:56;98128.03;;;0.04;100.00
71889;BME280;59762;49.998;14.858;2023-11-22T10:08:23;98133.88;;;-0.08;100.00
71889;BME280;59762;49.998;14.858;2023-11-22T10:10:49;98143.50;;;-0.42;100.00
71889;BME280;59762;49.998;14.858;2023-11-22T10:13:17;98138.47;;;-0.47;100.00
71889;BME280;59762;49.998;14.858;2023-11-22T10:15:49;98143.56;;;-0.44;100.00
71889;BME280;59762;49.998;14.858;2023-11-22T10:18:15;98143.38;;;-0.22;100.00
71889;BME280;59762;49.998;14.858;2023-11-22T10:20:43;98156.78;;;-0.28;100.00
71889;BME280;59762;49.998;14.858;2023-11-22T10:23:16;98158.88;;;-0.35;100.00
71889;BME280;59762;49.998;14.858;2023-11-22T10:25:47;98153.81;;;-0.04;100.00
71889;BME280;59762;49.998;14.858;2023-11-22T10:28:16;98169.63;;;-0.05;100.00
71889;BME280;59762;49.998;14.858;2023-11-22T10:30:45;98185.09;;;0.01;100.00
71889;BME280;59762;49.998;14.858;2023-11-22T10:33:10;98196.06;;;-0.08;100.00
71889;BME280;59762;49.998;14.858;2023-11-22T10:35:49;98196.19;;;-0.11;100.00
71889;BME280;59762;49.998;14.858;2023-11-22T10:38:17;98195.13;;;-0.07;100.00
71889;BME280;59762;49.998;14.858;2023-11-22T10:40:44;98181.38;;;-0.12;100.00
71889;BME280;59762;49.998;14.858;2023-11-22T10:43:11;98175.31;;;-0.31;100.00
71889;BME280;59762;49.998;14.858;2023-11-22T10:45:37;98186.03;;;-0.36;100.00
71889;BME280;59762;49.998;14.858;2023-11-22T10:48:05;98184.78;;;-0.29;100.00
71889;BME280;59762;49.998;14.858;2023-11-22T10:50:31;98184.97;;;-0.32;100.00
71889;BME280;59762;49.998;14.858;2023-11-22T10:53:07;98202.72;;;-0.37;100.00
71889;BME280;59762;49.998;14.858;2023-11-22T10:55:47;98200.97;;;-0.19;100.00
71889;BME280;59762;49.998;14.858;2023-11-22T10:58:17;98192.34;;;-0.04;100.00
71889;BME280;59762;49.998;14.858;2023-11-22T11:00:46;98197.47;;;0.16;100.00
71889;BME280;59762;49.998;14.858;2023-11-22T11:03:14;98210.09;;;0.08;100.00
71889;BME280;59762;49.998;14.858;2023-11-22T11:05:50;98205.78;;;0.07;100.00
71889;BME280;59762;49.998;14.858;2023-11-22T11:08:18;98202.63;;;0.17;100.00
71889;BME280;59762;49.998;14.858;2023-11-22T11:10:46;98198.28;;;-0.01;100.00
71889;BME280;59762;49.998;14.858;2023-11-22T11:13:12;98208.56;;;-0.13;100.00
71889;BME280;59762;49.998;14.858;2023-11-22T11:15:40;98203.53;;;-0.01;100.00
71889;BME280;59762;49.998;14.858;2023-11-22T11:18:07;98204.41;;;0.17;100.00
71889;BME280;59762;49.998;14.858;2023-11-22T11:20:59;98203.78;;;0.12;100.00
71889;BME280;59762;49.998;14.858;2023-11-22T11:23:32;98199.41;;;0.13;100.00
71889;BME280;59762;49.998;14.858;2023-11-22T11:26:08;98191.44;;;-0.03;100.00
71889;BME280;59762;49.998;14.858;2023-11-22T11:28:45;98180.56;;;0.22;100.00
71889;BME280;59762;49.998;14.858;2023-11-22T11:31:11;98171.81;;;0.21;100.00
71889;BME280;59762;49.998;14.858;2023-11-22T11:36:22;98165.34;;;0.11;100.00
71889;BME280;59762;49.998;14.858;2023-11-22T11:38:51;98168.81;;;0.29;100.00
71889;BME280;59762;49.998;14.858;2023-11-22T11:41:17;98171.81;;;0.38;100.00
71889;BME280;59762;49.998;14.858;2023-11-22T11:43:47;98185.03;;;0.37;100.00
71889;BME280;59762;49.998;14.858;2023-11-22T11:46:17;98186.88;;;0.35;100.00
71889;BME280;59762;49.998;14.858;2023-11-22T11:48:53;98174.69;;;0.17;100.00
71889;BME280;59762;49.998;14.858;2023-11-22T11:51:27;98188.50;;;0.37;100.00
71889;BME280;59762;49.998;14.858;2023-11-22T11:53:56;98185.81;;;0.22;100.00
71889;BME280;59762;49.998;14.858;2023-11-22T11:56:22;98184.72;;;0.08;100.00
71889;BME280;59762;49.998;14.858;2023-11-22T11:58:50;98179.41;;;0.27;100.00
71889;BME280;59762;49.998;14.858;2023-11-22T12:01:16;98180.09;;;0.31;100.00
71889;BME280;59762;49.998;14.858;2023-11-22T12:03:43;98181.31;;;0.41;100.00
71889;BME280;59762;49.998;14.858;2023-11-22T12:06:09;98184.72;;;0.43;100.00
71889;BME280;59762;49.998;14.858;2023-11-22T12:08:35;98176.38;;;0.52;100.00
71889;BME280;59762;49.998;14.858;2023-11-22T12:11:02;98181.56;;;0.53;100.00
71889;BME280;59762;49.998;14.858;2023-11-22T12:13:30;98181.41;;;0.22;100.00
71889;BME280;59762;49.998;14.858;2023-11-22T12:15:56;98183.66;;;0.47;100.00
71889;BME280;59762;49.998;14.858;2023-11-22T12:18:22;98186.41;;;0.27;100.00
71889;BME280;59762;49.998;14.858;2023-11-22T12:20:59;98186.56;;;0.41;100.00
71889;BME280;59762;49.998;14.858;2023-11-22T12:23:26;98187.50;;;0.22;100.00
71889;BME280;59762;49.998;14.858;2023-11-22T12:25:56;98191.88;;;0.39;100.00
71889;BME280;59762;49.998;14.858;2023-11-22T12:28:31;98193.22;;;0.48;100.00
71889;BME280;59762;49.998;14.858;2023-11-22T12:31:10;98204.81;;;0.27;100.00
71889;BME280;59762;49.998;14.858;2023-11-22T12:33:37;98217.00;;;0.28;100.00
71889;BME280;59762;49.998;14.858;2023-11-22T12:36:05;98210.75;;;0.30;100.00
71889;BME280;59762;49.998;14.858;2023-11-22T12:38:33;98224.34;;;0.21;100.00
71889;BME280;59762;49.998;14.858;2023-11-22T12:40:59;98229.81;;;0.17;100.00
71889;BME280;59762;49.998;14.858;2023-11-22T12:43:27;98232.28;;;0.19;100.00
71889;BME280;59762;49.998;14.858;2023-11-22T12:46:04;98240.94;;;0.04;100.00
71889;BME280;59762;49.998;14.858;2023-11-22T12:48:32;98237.16;;;0.10;100.00
71889;BME280;59762;49.998;14.858;2023-11-22T12:50:59;98225.47;;;-0.02;100.00